sensor_id;sensor_type;location;lat;lon;timestamp;pressure;altitude;pressure_sealevel;temperature;humidity
32298;BME280;18782;48.984;8.548;2022-09-29T00:02:23;98507.66;;;6.49;100.00
32298;BME280;18782;48.984;8.548;2022-09-29T00:04:51;98505.94;;;6.48;100.00
32298;BME280;18782;48.984;8.548;2022-09-29T00:07:19;98509.38;;;6.50;100.00
32298;BME280;18782;48.984;8.548;2022-09-29T00:09:46;98506.81;;;6.49;100.00
32298;BME280;18782;48.984;8.548;2022-09-29T00:12:14;98504.28;;;6.50;100.00
32298;BME280;18782;48.984;8.548;2022-09-29T00:14:41;98500.88;;;6.51;100.00
32298;BME280;18782;48.984;8.548;2022-09-29T00:17:13;98503.41;;;6.50;100.00
32298;BME280;18782;48.984;8.548;2022-09-29T00:19:42;98495.69;;;6.47;100.00
32298;BME280;18782;48.984;8.548;2022-09-29T00:22:10;98500.75;;;6.44;100.00
32298;BME280;18782;48.984;8.548;2022-09-29T00:24:38;98487.88;;;6.39;100.00
32298;BME280;18782;48.984;8.548;2022-09-29T00:27:05;98493.78;;;6.35;100.00
32298;BME280;18782;48.984;8.548;2022-09-29T00:29:33;98495.44;;;6.33;100.00
32298;BME280;18782;48.984;8.548;2022-09-29T00:32:00;98489.41;;;6.28;100.00
32298;BME280;18782;48.984;8.548;2022-09-29T00:34:28;98485.91;;;6.24;100.00
32298;BME280;18782;48.984;8.548;2022-09-29T00:36:57;98484.19;;;6.22;100.00
32298;BME280;18782;48.984;8.548;2022-09-29T00:39:25;98486.75;;;6.22;100.00
32298;BME280;18782;48.984;8.548;2022-09-29T00:41:52;98486.78;;;6.25;100.00
32298;BME280;18782;48.984;8.548;2022-09-29T00:44:56;98486.78;;;6.25;100.00
32298;BME280;18782;48.984;8.548;2022-09-29T00:47:26;98480.00;;;6.27;100.00
32298;BME280;18782;48.984;8.548;2022-09-29T00:49:57;98479.09;;;6.23;100.00
32298;BME280;18782;48.984;8.548;2022-09-29T00:52:29;98480.00;;;6.27;100.00
32298;BME280;18782;48.984;8.548;2022-09-29T00:55:03;98472.38;;;6.30;100.00
32298;BME280;18782;48.984;8.548;2022-09-29T00:57:37;98475.00;;;6.33;100.00
32298;BME280;18782;48.984;8.548;2022-09-29T01:00:10;98479.22;;;6.31;100.00
32298;BME280;18782;48.984;8.548;2022-09-29T01:02:40;98477.59;;;6.35;100.00
32298;BME280;18782;48.984;8.548;2022-09-29T01:05:12;98479.28;;;6.34;100.00
32298;BME280;18782;48.984;8.548;2022-09-29T01:07:42;98471.63;;;6.34;100.00
32298;BME280;18782;48.984;8.548;2022-09-29T01:10:12;98475.88;;;6.34;100.00
32298;BME280;18782;48.984;8.548;2022-09-29T01:12:43;98471.63;;;6.36;100.00
32298;BME280;18782;48.984;8.548;2022-09-29T01:15:12;98463.16;;;6.38;100.00
32298;BME280;18782;48.984;8.548;2022-09-29T01:17:41;98470.06;;;6.42;100.00
32298;BME280;18782;48.984;8.548;2022-09-29T01:20:11;98465.00;;;6.47;100.00
32298;BME280;18782;48.984;8.548;2022-09-29T01:26:15;98460.03;;;6.54;100.00
32298;BME280;18782;48.984;8.548;2022-09-29T01:29:00;98462.53;;;6.51;100.00
32298;BME280;18782;48.984;8.548;2022-09-29T01:31:36;98466.78;;;6.51;100.00
32298;BME280;18782;48.984;8.548;2022-09-29T01:34:15;98465.16;;;6.54;99.89
32298;BME280;18782;48.984;8.548;2022-09-29T01:36:50;98475.47;;;6.61;99.94
32298;BME280;18782;48.984;8.548;2022-09-29T01:39:25;98472.91;;;6.59;100.00
32298;BME280;18782;48.984;8.548;2022-09-29T01:41:59;98479.75;;;6.62;100.00
32298;BME280;18782;48.984;8.548;2022-09-29T01:44:32;98472.06;;;6.62;100.00
32298;BME280;18782;48.984;8.548;2022-09-29T01:47:08;98469.59;;;6.66;100.00
32298;BME280;18782;48.984;8.548;2022-09-29T01:49:40;98478.19;;;6.70;100.00
32298;BME280;18782;48.984;8.548;2022-09-29T01:52:12;98479.03;;;6.69;100.00
32298;BME280;18782;48.984;8.548;2022-09-29T01:54:44;98487.56;;;6.71;100.00
32298;BME280;18782;48.984;8.548;2022-09-29T01:57:17;98491.91;;;6.75;100.00
32298;BME280;18782;48.984;8.548;2022-09-29T01:59:49;98485.19;;;6.82;100.00
32298;BME280;18782;48.984;8.548;2022-09-29T02:02:24;98493.78;;;6.85;100.00
32298;BME280;18782;48.984;8.548;2022-09-29T02:04:56;98492.94;;;6.86;100.00
32298;BME280;18782;48.984;8.548;2022-09-29T02:07:30;98498.06;;;6.86;99.95
32298;BME280;18782;48.984;8.548;2022-09-29T02:10:00;98503.16;;;6.86;100.00
32298;BME280;18782;48.984;8.548;2022-09-29T02:12:31;98492.94;;;6.86;100.00
32298;BME280;18782;48.984;8.548;2022-09-29T02:15:02;98495.47;;;6.85;100.00
32298;BME280;18782;48.984;8.548;2022-09-29T02:17:36;98490.31;;;6.83;100.00
32298;BME280;18782;48.984;8.548;2022-09-29T02:20:06;98497.13;;;6.81;100.00
32298;BME280;18782;48.984;8.548;2022-09-29T02:22:34;98491.16;;;6.80;100.00
32298;BME280;18782;48.984;8.548;2022-09-29T02:25:02;98489.50;;;6.84;100.00
32298;BME280;18782;48.984;8.548;2022-09-29T02:27:33;98479.28;;;6.86;100.00
32298;BME280;18782;48.984;8.548;2022-09-29T02:30:03;98489.53;;;6.87;100.00
32298;BME280;18782;48.984;8.548;2022-09-29T02:32:34;98496.38;;;6.88;100.00
32298;BME280;18782;48.984;8.548;2022-09-29T02:35:05;98490.38;;;6.88;100.00
32298;BME280;18782;48.984;8.548;2022-09-29T02:37:40;98485.28;;;6.88;100.00
32298;BME280;18782;48.984;8.548;2022-09-29T02:40:21;98491.31;;;6.91;100.00
32298;BME280;18782;48.984;8.548;2022-09-29T02:43:00;98484.56;;;6.96;100.00
32298;BME280;18782;48.984;8.548;2022-09-29T02:45:38;98491.41;;;6.97;100.00
32298;BME280;18782;48.984;8.548;2022-09-29T02:48:17;98493.13;;;6.98;100.00
32298;BME280;18782;48.984;8.548;2022-09-29T02:51:00;98494.84;;;6.99;100.00
32298;BME280;18782;48.984;8.548;2022-09-29T02:53:43;98488.84;;;6.97;100.00
32298;BME280;18782;48.984;8.548;2022-09-29T02:56:19;98478.63;;;6.99;100.00
32298;BME280;18782;48.984;8.548;2022-09-29T02:58:56;98477.75;;;6.98;100.00
32298;BME280;18782;48.984;8.548;2022-09-29T03:01:29;98479.44;;;6.96;100.00
32298;BME280;18782;48.984;8.548;2022-09-29T03:03:59;98489.69;;;6.96;100.00
32298;BME280;18782;48.984;8.548;2022-09-29T03:06:30;98484.59;;;6.99;100.00
32298;BME280;18782;48.984;8.548;2022-09-29T03:08:57;98487.19;;;7.01;100.00
32298;BME280;18782;48.984;8.548;2022-09-29T03:11:25;98484.66;;;7.02;100.00
32298;BME280;18782;48.984;8.548;2022-09-29T03:13:53;98482.94;;;7.01;100.00
32298;BME280;18782;48.984;8.548;2022-09-29T03:16:20;98481.22;;;7.00;100.00
32298;BME280;18782;48.984;8.548;2022-09-29T03:18:48;98467.63;;;7.04;100.00
32298;BME280;18782;48.984;8.548;2022-09-29T03:21:17;98471.00;;;7.00;100.00
32298;BME280;18782;48.984;8.548;2022-09-29T03:23:45;98474.34;;;6.96;100.00
32298;BME280;18782;48.984;8.548;2022-09-29T03:26:12;98462.31;;;6.91;100.00
32298;BME280;18782;48.984;8.548;2022-09-29T03:28:40;98457.19;;;6.89;100.00
32298;BME280;18782;48.984;8.548;2022-09-29T03:31:08;98460.47;;;6.84;100.00
32298;BME280;18782;48.984;8.548;2022-09-29T03:33:36;98457.91;;;6.80;100.00
32298;BME280;18782;48.984;8.548;2022-09-29T03:36:05;98446.81;;;6.80;100.00
32298;BME280;18782;48.984;8.548;2022-09-29T03:38:35;98468.91;;;6.78;100.00
32298;BME280;18782;48.984;8.548;2022-09-29T03:41:03;98462.16;;;6.80;100.00
32298;BME280;18782;48.984;8.548;2022-09-29T03:43:30;98459.56;;;6.78;100.00
32298;BME280;18782;48.984;8.548;2022-09-29T03:45:58;98459.59;;;6.80;100.00
32298;BME280;18782;48.984;8.548;2022-09-29T03:48:26;98453.56;;;6.76;100.00
32298;BME280;18782;48.984;8.548;2022-09-29T03:50:56;98456.09;;;6.75;100.00
32298;BME280;18782;48.984;8.548;2022-09-29T03:53:24;98460.38;;;6.76;100.00
32298;BME280;18782;48.984;8.548;2022-09-29T03:55:53;98463.78;;;6.75;100.00
32298;BME280;18782;48.984;8.548;2022-09-29T03:58:20;98465.44;;;6.73;100.00
32298;BME280;18782;48.984;8.548;2022-09-29T04:00:48;98474.81;;;6.72;100.00
32298;BME280;18782;48.984;8.548;2022-09-29T04:03:16;98477.28;;;6.68;100.00
32298;BME280;18782;48.984;8.548;2022-09-29T04:05:44;98472.13;;;6.65;100.00
32298;BME280;18782;48.984;8.548;2022-09-29T04:08:12;98473.75;;;6.60;100.00
32298;BME280;18782;48.984;8.548;2022-09-29T04:10:40;98475.41;;;6.58;100.00
32298;BME280;18782;48.984;8.548;2022-09-29T04:13:09;98475.53;;;6.64;100.00
32298;BME280;18782;48.984;8.548;2022-09-29T04:15:36;98473.00;;;6.65;100.00
32298;BME280;18782;48.984;8.548;2022-09-29T04:18:04;98473.00;;;6.67;100.00
32298;BME280;18782;48.984;8.548;2022-09-29T04:20:32;98475.56;;;6.67;100.00
32298;BME280;18782;48.984;8.548;2022-09-29T04:23:00;98475.56;;;6.67;100.00
32298;BME280;18782;48.984;8.548;2022-09-29T04:25:27;98471.28;;;6.64;100.00
32298;BME280;18782;48.984;8.548;2022-09-29T04:27:55;98473.84;;;6.66;100.00
32298;BME280;18782;48.984;8.548;2022-09-29T04:30:24;98473.06;;;6.68;100.00
32298;BME280;18782;48.984;8.548;2022-09-29T04:32:51;98479.75;;;6.62;100.00
32298;BME280;18782;48.984;8.548;2022-09-29T04:35:19;98473.78;;;6.63;100.00
32298;BME280;18782;48.984;8.548;2022-09-29T04:37:46;98478.00;;;6.59;100.00
32298;BME280;18782;48.984;8.548;2022-09-29T04:40:14;98481.44;;;6.60;100.00
32298;BME280;18782;48.984;8.548;2022-09-29T04:42:42;98477.16;;;6.59;100.00
32298;BME280;18782;48.984;8.548;2022-09-29T04:45:09;98477.16;;;6.59;100.00
32298;BME280;18782;48.984;8.548;2022-09-29T04:47:38;98478.81;;;6.57;100.00
32298;BME280;18782;48.984;8.548;2022-09-29T04:50:07;98475.31;;;6.51;100.00
32298;BME280;18782;48.984;8.548;2022-09-29T04:52:35;98482.94;;;6.48;100.00
32298;BME280;18782;48.984;8.548;2022-09-29T04:55:03;98489.75;;;6.48;100.00
32298;BME280;18782;48.984;8.548;2022-09-29T04:57:31;98486.38;;;6.50;100.00
32298;BME280;18782;48.984;8.548;2022-09-29T04:59:58;98489.00;;;6.53;100.00
32298;BME280;18782;48.984;8.548;2022-09-29T05:02:26;98495.81;;;6.54;100.00
32298;BME280;18782;48.984;8.548;2022-09-29T05:04:55;98493.28;;;6.56;100.00
32298;BME280;18782;48.984;8.548;2022-09-29T05:07:23;98499.25;;;6.57;100.00
32298;BME280;18782;48.984;8.548;2022-09-29T05:09:51;98502.81;;;6.65;100.00
32298;BME280;18782;48.984;8.548;2022-09-29T05:12:18;98502.84;;;6.68;100.00
32298;BME280;18782;48.984;8.548;2022-09-29T05:14:46;98507.94;;;6.66;100.00
32298;BME280;18782;48.984;8.548;2022-09-29T05:17:13;98502.00;;;6.67;100.00
32298;BME280;18782;48.984;8.548;2022-09-29T05:19:41;98510.50;;;6.65;100.00
32298;BME280;18782;48.984;8.548;2022-09-29T05:22:10;98512.19;;;6.64;100.00
32298;BME280;18782;48.984;8.548;2022-09-29T05:24:37;98510.50;;;6.65;100.00
32298;BME280;18782;48.984;8.548;2022-09-29T05:27:05;98511.38;;;6.67;100.00
32298;BME280;18782;48.984;8.548;2022-09-29T05:29:33;98512.38;;;6.76;100.00
32298;BME280;18782;48.984;8.548;2022-09-29T05:32:00;98515.97;;;6.88;100.00
32298;BME280;18782;48.984;8.548;2022-09-29T05:34:28;98510.94;;;6.92;100.00
32298;BME280;18782;48.984;8.548;2022-09-29T05:36:55;98511.69;;;6.85;100.00
32298;BME280;18782;48.984;8.548;2022-09-29T05:39:24;98511.72;;;6.88;100.00
32298;BME280;18782;48.984;8.548;2022-09-29T05:41:52;98514.97;;;6.78;100.00
32298;BME280;18782;48.984;8.548;2022-09-29T05:44:24;98521.84;;;6.80;100.00
32298;BME280;18782;48.984;8.548;2022-09-29T05:46:52;98517.56;;;6.81;100.00
32298;BME280;18782;48.984;8.548;2022-09-29T05:49:20;98521.88;;;6.84;100.00
32298;BME280;18782;48.984;8.548;2022-09-29T05:51:48;98521.06;;;6.86;100.00
32298;BME280;18782;48.984;8.548;2022-09-29T05:54:16;98520.31;;;6.93;100.00
32298;BME280;18782;48.984;8.548;2022-09-29T05:56:45;98523.78;;;6.95;100.00
32298;BME280;18782;48.984;8.548;2022-09-29T05:59:12;98521.25;;;6.98;100.00
32298;BME280;18782;48.984;8.548;2022-09-29T06:01:40;98525.59;;;7.02;100.00
32298;BME280;18782;48.984;8.548;2022-09-29T06:04:08;98525.69;;;7.09;100.00
32298;BME280;18782;48.984;8.548;2022-09-29T06:06:36;98529.22;;;7.17;100.00
32298;BME280;18782;48.984;8.548;2022-09-29T06:09:06;98530.16;;;7.22;100.00
32298;BME280;18782;48.984;8.548;2022-09-29T06:11:33;98518.38;;;7.35;100.00
32298;BME280;18782;48.984;8.548;2022-09-29T06:14:02;98515.09;;;7.42;100.00
32298;BME280;18782;48.984;8.548;2022-09-29T06:16:31;98514.44;;;7.56;100.00
32298;BME280;18782;48.984;8.548;2022-09-29T06:18:59;98509.44;;;7.66;100.00
32298;BME280;18782;48.984;8.548;2022-09-29T06:21:28;98512.97;;;7.77;100.00
32298;BME280;18782;48.984;8.548;2022-09-29T06:23:57;98513.09;;;7.86;100.00
32298;BME280;18782;48.984;8.548;2022-09-29T06:26:25;98512.38;;;7.98;99.53
32298;BME280;18782;48.984;8.548;2022-09-29T06:28:54;98523.53;;;8.01;99.19
32298;BME280;18782;48.984;8.548;2022-09-29T06:31:25;98516.75;;;8.06;98.41
32298;BME280;18782;48.984;8.548;2022-09-29T06:33:55;98516.84;;;8.14;98.04
32298;BME280;18782;48.984;8.548;2022-09-29T06:36:26;98522.03;;;8.19;97.51
32298;BME280;18782;48.984;8.548;2022-09-29T06:39:14;98526.31;;;8.20;96.75
32298;BME280;18782;48.984;8.548;2022-09-29T06:41:42;98527.16;;;8.19;97.40
32298;BME280;18782;48.984;8.548;2022-09-29T06:44:14;98528.00;;;8.19;97.67
32298;BME280;18782;48.984;8.548;2022-09-29T06:46:43;98533.97;;;8.17;97.71
32298;BME280;18782;48.984;8.548;2022-09-29T06:49:11;98537.31;;;8.09;97.69
32298;BME280;18782;48.984;8.548;2022-09-29T06:51:40;98533.84;;;8.06;98.29
32298;BME280;18782;48.984;8.548;2022-09-29T06:54:13;98544.88;;;8.00;98.44
32298;BME280;18782;48.984;8.548;2022-09-29T06:56:41;98545.75;;;7.99;98.99
32298;BME280;18782;48.984;8.548;2022-09-29T06:59:08;98540.56;;;7.96;99.31
32298;BME280;18782;48.984;8.548;2022-09-29T07:01:36;98549.16;;;8.01;99.91
32298;BME280;18782;48.984;8.548;2022-09-29T07:04:05;98545.03;;;8.13;99.72
32298;BME280;18782;48.984;8.548;2022-09-29T07:06:33;98542.53;;;8.19;100.00
32298;BME280;18782;48.984;8.548;2022-09-29T07:09:01;98542.69;;;8.31;99.51
32298;BME280;18782;48.984;8.548;2022-09-29T07:11:28;98551.19;;;8.30;97.77
32298;BME280;18782;48.984;8.548;2022-09-29T07:13:56;98558.09;;;8.34;98.69
32298;BME280;18782;48.984;8.548;2022-09-29T07:16:23;98547.06;;;8.40;98.65
32298;BME280;18782;48.984;8.548;2022-09-29T07:18:52;98548.00;;;8.46;98.52
32298;BME280;18782;48.984;8.548;2022-09-29T07:21:20;98544.69;;;8.56;98.08
32298;BME280;18782;48.984;8.548;2022-09-29T07:23:48;98534.59;;;8.75;100.00
32298;BME280;18782;48.984;8.548;2022-09-29T07:26:16;98537.28;;;8.88;98.63
32298;BME280;18782;48.984;8.548;2022-09-29T07:28:44;98550.16;;;8.96;97.17
32298;BME280;18782;48.984;8.548;2022-09-29T07:31:14;98545.09;;;9.02;96.05
32298;BME280;18782;48.984;8.548;2022-09-29T07:33:43;98545.97;;;9.04;95.29
32298;BME280;18782;48.984;8.548;2022-09-29T07:36:11;98547.72;;;9.10;95.58
32298;BME280;18782;48.984;8.548;2022-09-29T07:38:41;98546.09;;;9.21;95.68
32298;BME280;18782;48.984;8.548;2022-09-29T07:41:11;98544.47;;;9.29;95.47
32298;BME280;18782;48.984;8.548;2022-09-29T07:43:39;98549.78;;;9.55;97.81
32298;BME280;18782;48.984;8.548;2022-09-29T07:46:08;98542.16;;;9.74;96.91
32298;BME280;18782;48.984;8.548;2022-09-29T07:48:37;98554.28;;;9.99;96.72
32298;BME280;18782;48.984;8.548;2022-09-29T07:51:07;98552.66;;;10.19;95.18
32298;BME280;18782;48.984;8.548;2022-09-29T07:53:36;98549.28;;;10.36;94.07
32298;BME280;18782;48.984;8.548;2022-09-29T07:56:07;98551.91;;;10.51;91.83
32298;BME280;18782;48.984;8.548;2022-09-29T07:58:36;98556.16;;;10.34;86.24
32298;BME280;18782;48.984;8.548;2022-09-29T08:01:06;98556.13;;;10.28;86.70
32298;BME280;18782;48.984;8.548;2022-09-29T08:03:36;98561.31;;;10.34;88.23
32298;BME280;18782;48.984;8.548;2022-09-29T08:06:04;98566.47;;;10.40;87.25
32298;BME280;18782;48.984;8.548;2022-09-29T08:08:33;98562.13;;;10.25;86.56
32298;BME280;18782;48.984;8.548;2022-09-29T08:11:02;98568.19;;;10.41;87.58
32298;BME280;18782;48.984;8.548;2022-09-29T08:13:32;98562.25;;;10.66;89.48
32298;BME280;18782;48.984;8.548;2022-09-29T08:16:02;98565.69;;;10.82;88.10
32298;BME280;18782;48.984;8.548;2022-09-29T08:18:30;98570.00;;;10.94;86.91
32298;BME280;18782;48.984;8.548;2022-09-29T08:20:58;98570.00;;;11.03;87.45
32298;BME280;18782;48.984;8.548;2022-09-29T08:23:29;98580.31;;;11.15;87.99
32298;BME280;18782;48.984;8.548;2022-09-29T08:25:59;98571.72;;;11.19;87.50
32298;BME280;18782;48.984;8.548;2022-09-29T08:28:28;98572.56;;;11.35;88.67
32298;BME280;18782;48.984;8.548;2022-09-29T08:31:02;98581.16;;;11.42;88.95
32298;BME280;18782;48.984;8.548;2022-09-29T08:33:30;98576.84;;;11.58;87.51
32298;BME280;18782;48.984;8.548;2022-09-29T08:35:59;98579.41;;;11.70;87.89
32298;BME280;18782;48.984;8.548;2022-09-29T08:38:30;98581.09;;;11.80;87.85
32298;BME280;18782;48.984;8.548;2022-09-29T08:41:02;98578.50;;;11.94;86.84
32298;BME280;18782;48.984;8.548;2022-09-29T08:43:33;98583.63;;;12.00;84.95
32298;BME280;18782;48.984;8.548;2022-09-29T08:46:07;98587.00;;;12.23;87.14
32298;BME280;18782;48.984;8.548;2022-09-29T08:48:38;98583.53;;;12.34;82.75
32298;BME280;18782;48.984;8.548;2022-09-29T08:51:27;98592.09;;;12.40;81.20
32298;BME280;18782;48.984;8.548;2022-09-29T08:54:14;98598.97;;;12.37;80.45
32298;BME280;18782;48.984;8.548;2022-09-29T08:57:03;98601.53;;;12.41;81.55
32298;BME280;18782;48.984;8.548;2022-09-29T08:59:32;98604.88;;;12.62;80.68
32298;BME280;18782;48.984;8.548;2022-09-29T09:02:20;98596.28;;;12.66;79.49
32298;BME280;18782;48.984;8.548;2022-09-29T09:05:11;98603.81;;;13.01;82.01
32298;BME280;18782;48.984;8.548;2022-09-29T09:07:45;98603.75;;;13.07;78.54
32298;BME280;18782;48.984;8.548;2022-09-29T09:10:25;98606.16;;;13.35;78.22
32298;BME280;18782;48.984;8.548;2022-09-29T09:13:04;98606.84;;;13.52;76.35
32298;BME280;18782;48.984;8.548;2022-09-29T09:15:47;98603.16;;;13.83;76.74
32298;BME280;18782;48.984;8.548;2022-09-29T09:21:38;98606.53;;;13.89;72.99
32298;BME280;18782;48.984;8.548;2022-09-29T09:24:15;98608.41;;;13.71;72.64
32298;BME280;18782;48.984;8.548;2022-09-29T09:26:49;98609.13;;;13.87;74.41
32298;BME280;18782;48.984;8.548;2022-09-29T09:29:21;98612.09;;;14.32;75.08
32298;BME280;18782;48.984;8.548;2022-09-29T09:31:55;98609.38;;;14.40;72.76
32298;BME280;18782;48.984;8.548;2022-09-29T09:34:28;98599.72;;;14.55;72.88
32298;BME280;18782;48.984;8.548;2022-09-29T09:37:15;98605.81;;;14.53;69.67
32298;BME280;18782;48.984;8.548;2022-09-29T09:39:47;98604.06;;;14.56;69.78
32298;BME280;18782;48.984;8.548;2022-09-29T09:42:19;98610.81;;;14.68;69.61
32298;BME280;18782;48.984;8.548;2022-09-29T09:44:50;98616.41;;;14.99;70.48
32298;BME280;18782;48.984;8.548;2022-09-29T09:47:25;98612.63;;;15.19;68.48
32298;BME280;18782;48.984;8.548;2022-09-29T09:49:56;98613.25;;;15.36;67.69
32298;BME280;18782;48.984;8.548;2022-09-29T09:52:30;98599.69;;;15.20;65.05
32298;BME280;18782;48.984;8.548;2022-09-29T09:55:02;98602.34;;;15.16;66.36
32298;BME280;18782;48.984;8.548;2022-09-29T09:57:43;98603.06;;;15.25;66.45
32298;BME280;18782;48.984;8.548;2022-09-29T10:00:14;98599.38;;;15.38;66.31
32298;BME280;18782;48.984;8.548;2022-09-29T10:02:44;98602.81;;;15.40;65.10
32298;BME280;18782;48.984;8.548;2022-09-29T10:05:14;98600.69;;;15.64;64.40
32298;BME280;18782;48.984;8.548;2022-09-29T10:07:44;98603.75;;;15.86;64.78
32298;BME280;18782;48.984;8.548;2022-09-29T10:10:16;98606.72;;;16.14;65.41
32298;BME280;18782;48.984;8.548;2022-09-29T10:12:45;98605.34;;;16.39;65.76
32298;BME280;18782;48.984;8.548;2022-09-29T10:15:17;98598.84;;;16.59;62.54
32298;BME280;18782;48.984;8.548;2022-09-29T10:17:50;98598.72;;;16.65;61.06
32298;BME280;18782;48.984;8.548;2022-09-29T10:20:31;98600.06;;;16.84;61.24
32298;BME280;18782;48.984;8.548;2022-09-29T10:23:26;98601.59;;;17.30;61.76
32298;BME280;18782;48.984;8.548;2022-09-29T10:25:57;98602.19;;;17.41;60.60
32298;BME280;18782;48.984;8.548;2022-09-29T10:28:28;98606.59;;;17.73;60.22
32298;BME280;18782;48.984;8.548;2022-09-29T10:31:14;98609.75;;;17.86;58.99
32298;BME280;18782;48.984;8.548;2022-09-29T10:33:47;98611.19;;;17.62;58.17
32298;BME280;18782;48.984;8.548;2022-09-29T10:36:15;98602.47;;;17.65;56.89
32298;BME280;18782;48.984;8.548;2022-09-29T10:38:47;98607.44;;;17.76;56.95
32298;BME280;18782;48.984;8.548;2022-09-29T10:41:16;98601.88;;;17.54;58.68
32298;BME280;18782;48.984;8.548;2022-09-29T10:43:46;98603.66;;;17.52;58.45
32298;BME280;18782;48.984;8.548;2022-09-29T10:46:48;98602.59;;;17.59;57.18
32298;BME280;18782;48.984;8.548;2022-09-29T10:49:18;98593.09;;;17.58;57.67
32298;BME280;18782;48.984;8.548;2022-09-29T10:51:55;98605.47;;;17.50;56.89
32298;BME280;18782;48.984;8.548;2022-09-29T10:54:27;98600.63;;;17.34;58.53
32298;BME280;18782;48.984;8.548;2022-09-29T10:56:56;98603.34;;;17.30;58.01
32298;BME280;18782;48.984;8.548;2022-09-29T10:59:25;98604.91;;;17.37;59.24
32298;BME280;18782;48.984;8.548;2022-09-29T11:01:55;98601.44;;;17.36;59.63
32298;BME280;18782;48.984;8.548;2022-09-29T11:04:27;98609.94;;;17.44;56.67
32298;BME280;18782;48.984;8.548;2022-09-29T11:06:56;98600.63;;;17.34;58.16
32298;BME280;18782;48.984;8.548;2022-09-29T11:09:39;98600.91;;;17.22;57.88
32298;BME280;18782;48.984;8.548;2022-09-29T11:12:31;98602.84;;;17.14;58.05
32298;BME280;18782;48.984;8.548;2022-09-29T11:15:00;98603.41;;;16.89;58.82
32298;BME280;18782;48.984;8.548;2022-09-29T11:17:30;98609.59;;;16.84;59.16
32298;BME280;18782;48.984;8.548;2022-09-29T11:20:00;98606.75;;;16.94;58.84
32298;BME280;18782;48.984;8.548;2022-09-29T11:22:46;98606.63;;;17.01;59.73
32298;BME280;18782;48.984;8.548;2022-09-29T11:28:19;98600.72;;;16.94;58.32
32298;BME280;18782;48.984;8.548;2022-09-29T11:31:01;98604.00;;;16.62;59.63
32298;BME280;18782;48.984;8.548;2022-09-29T11:33:41;98609.09;;;16.65;61.23
32298;BME280;18782;48.984;8.548;2022-09-29T11:36:18;98609.88;;;16.72;61.43
32298;BME280;18782;48.984;8.548;2022-09-29T11:39:02;98611.66;;;16.68;62.72
32298;BME280;18782;48.984;8.548;2022-09-29T11:41:48;98611.63;;;16.71;62.61
32298;BME280;18782;48.984;8.548;2022-09-29T11:44:34;98614.91;;;16.79;63.16
32298;BME280;18782;48.984;8.548;2022-09-29T11:47:18;98615.84;;;16.75;64.19
32298;BME280;18782;48.984;8.548;2022-09-29T11:50:11;98619.34;;;16.74;63.40
32298;BME280;18782;48.984;8.548;2022-09-29T11:52:54;98622.84;;;16.70;63.98
32298;BME280;18782;48.984;8.548;2022-09-29T11:55:31;98617.75;;;16.67;64.67
32298;BME280;18782;48.984;8.548;2022-09-29T11:58:19;98618.81;;;16.57;63.79
32298;BME280;18782;48.984;8.548;2022-09-29T12:00:58;98613.72;;;16.52;65.22
32298;BME280;18782;48.984;8.548;2022-09-29T12:03:38;98619.31;;;16.32;64.54
32298;BME280;18782;48.984;8.548;2022-09-29T12:06:27;98622.16;;;16.20;64.12
32298;BME280;18782;48.984;8.548;2022-09-29T12:09:05;98613.09;;;15.98;63.39
32298;BME280;18782;48.984;8.548;2022-09-29T12:11:49;98611.69;;;15.78;65.08
32298;BME280;18782;48.984;8.548;2022-09-29T12:15:06;98609.28;;;15.68;66.26
32298;BME280;18782;48.984;8.548;2022-09-29T12:17:40;98611.19;;;15.55;66.96
32298;BME280;18782;48.984;8.548;2022-09-29T12:20:16;98613.09;;;15.44;67.23
32298;BME280;18782;48.984;8.548;2022-09-29T12:22:47;98611.53;;;15.33;67.89
32298;BME280;18782;48.984;8.548;2022-09-29T12:25:17;98615.13;;;15.26;66.94
32298;BME280;18782;48.984;8.548;2022-09-29T12:27:47;98621.47;;;15.07;68.14
32298;BME280;18782;48.984;8.548;2022-09-29T12:30:20;98615.41;;;15.08;69.40
32298;BME280;18782;48.984;8.548;2022-09-29T12:32:52;98608.56;;;15.04;69.02
32298;BME280;18782;48.984;8.548;2022-09-29T12:35:25;98615.56;;;14.99;68.78
32298;BME280;18782;48.984;8.548;2022-09-29T12:37:58;98613.88;;;14.95;68.80
32298;BME280;18782;48.984;8.548;2022-09-29T12:40:31;98613.88;;;14.95;70.26
32298;BME280;18782;48.984;8.548;2022-09-29T12:43:08;98613.06;;;14.91;70.32
32298;BME280;18782;48.984;8.548;2022-09-29T12:45:45;98619.16;;;14.88;68.81
32298;BME280;18782;48.984;8.548;2022-09-29T12:48:22;98617.41;;;14.87;69.27
32298;BME280;18782;48.984;8.548;2022-09-29T12:50:58;98616.50;;;14.92;70.25
32298;BME280;18782;48.984;8.548;2022-09-29T12:53:30;98619.00;;;14.98;72.43
32298;BME280;18782;48.984;8.548;2022-09-29T12:56:01;98606.84;;;15.04;72.87
32298;BME280;18782;48.984;8.548;2022-09-29T12:58:38;98616.22;;;15.11;73.49
32298;BME280;18782;48.984;8.548;2022-09-29T13:01:22;98608.38;;;15.16;73.28
32298;BME280;18782;48.984;8.548;2022-09-29T13:04:28;98612.56;;;15.23;72.58
32298;BME280;18782;48.984;8.548;2022-09-29T13:07:16;98614.28;;;15.26;71.98
32298;BME280;18782;48.984;8.548;2022-09-29T13:12:55;98625.44;;;15.31;71.61
32298;BME280;18782;48.984;8.548;2022-09-29T13:15:48;98623.47;;;15.44;71.25
32298;BME280;18782;48.984;8.548;2022-09-29T13:18:31;98620.72;;;15.54;70.82
32298;BME280;18782;48.984;8.548;2022-09-29T13:21:21;98628.19;;;15.74;68.33
32298;BME280;18782;48.984;8.548;2022-09-29T13:24:00;98629.59;;;15.94;69.94
32298;BME280;18782;48.984;8.548;2022-09-29T13:26:46;98626.53;;;16.16;69.16
32298;BME280;18782;48.984;8.548;2022-09-29T13:29:19;98637.38;;;16.38;66.04
32298;BME280;18782;48.984;8.548;2022-09-29T13:31:49;98634.28;;;16.63;64.97
32298;BME280;18782;48.984;8.548;2022-09-29T13:34:27;98633.03;;;16.82;62.25
32298;BME280;18782;48.984;8.548;2022-09-29T13:37:04;98636.19;;;16.97;61.91
32298;BME280;18782;48.984;8.548;2022-09-29T13:39:33;98643.94;;;16.56;62.91
32298;BME280;18782;48.984;8.548;2022-09-29T13:42:39;98639.88;;;16.86;61.22
32298;BME280;18782;48.984;8.548;2022-09-29T13:45:40;98647.31;;;17.40;58.91